| time (UTC) | temp F | wind direction | speed knots | gust knots | rain 1hr in | rain 24hr in | rain mn in | humidity % | barometer mb |
| 20260906173845 | 80 | 68 | 0.0 | 2.6 | 0.00 | 0.00 | 0.00 | 58 | 1022.6 |
| 20260906173341 | 79 | 42 | 0.0 | 1.7 | 0.00 | 0.00 | 0.00 | 56 | 1022.7 |
| 20260906172839 | 79 | 4 | 1.7 | 3.5 | 0.00 | 0.00 | 0.00 | 58 | 1022.8 |
| 20260906172336 | 79 | 158 | 2.6 | 3.5 | 0.00 | 0.00 | 0.00 | 59 | 1022.6 |
| 20260906171831 | 78 | 233 | 0.9 | 2.6 | 0.00 | 0.00 | 0.00 | 59 | 1022.7 |
| 20260906171326 | 78 | 229 | 1.7 | 3.5 | 0.00 | 0.00 | 0.00 | 60 | 1022.8 |
| 20260906170821 | 77 | 2 | 0.0 | 2.6 | 0.00 | 0.00 | 0.00 | 60 | 1022.8 |
| 20260906170317 | 77 | 68 | 0.9 | 3.5 | 0.00 | 0.00 | 0.00 | 59 | 1022.9 |
| 20260906165814 | 78 | 131 | 1.7 | 3.5 | 0.00 | 0.00 | 0.00 | 59 | 1022.6 |
| 20260906165308 | 77 | 34 | 0.0 | 0.9 | 0.00 | 0.00 | 0.00 | 59 | 1022.9 |
| 20260906164807 | 77 | 326 | 1.7 | 2.6 | 0.00 | 0.00 | 0.00 | 60 | 1022.7 |
| 20260906164302 | 77 | 50 | 0.0 | 0.9 | 0.00 | 0.00 | 0.00 | 58 | 1023.0 |
| 20260906163758 | 76 | 90 | 0.9 | 2.6 | 0.00 | 0.00 | 0.00 | 60 | 1023.0 |
| 20260906163254 | 77 | 213 | 1.7 | 2.6 | 0.00 | 0.00 | 0.00 | 59 | 1022.9 |
| 20260906162751 | 77 | 119 | 0.9 | 1.7 | 0.00 | 0.00 | 0.00 | 59 | 1022.8 |
| 20260906162250 | 76 | 348 | 0.0 | 1.7 | 0.00 | 0.00 | 0.00 | 60 | 1023.0 |
| 20260906161745 | 75 | 332 | 0.9 | 0.9 | 0.00 | 0.00 | 0.00 | 62 | 1022.9 |
| 20260906161244 | 75 | 226 | 3.5 | 5.2 | 0.00 | 0.00 | 0.00 | 63 | 1022.9 |
| 20260906160743 | 74 | 231 | 0.9 | 2.6 | 0.00 | 0.00 | 0.00 | 63 | 1023.0 |
| 20260906160237 | 75 | 233 | 3.5 | 3.5 | 0.00 | 0.00 | 0.00 | 64 | 1022.9 |
| 20260906155735 | 77 | 53 | 0.9 | 3.5 | 0.00 | 0.00 | 0.00 | 60 | 1023.1 |
| 20260906155230 | 75 | 63 | 0.9 | 1.7 | 0.00 | 0.00 | 0.00 | 61 | 1023.2 |
| 20260906154725 | 75 | 74 | 0.9 | 1.7 | 0.00 | 0.00 | 0.00 | 62 | 1023.0 |
| 20260906154215 | 76 | 48 | 0.0 | 2.6 | 0.00 | 0.00 | 0.00 | 61 | 1023.0 |
| 20260906153712 | 76 | 95 | 0.0 | 3.5 | 0.00 | 0.00 | 0.00 | 62 | 1023.0 |
| 20260906153207 | 74 | 19 | 0.0 | 1.7 | 0.00 | 0.00 | 0.00 | 61 | 1023.1 |
| 20260906152703 | 75 | 102 | 0.9 | 1.7 | 0.00 | 0.00 | 0.00 | 62 | 1023.1 |
| 20260906152157 | 75 | 318 | 0.9 | 2.6 | 0.00 | 0.00 | 0.00 | 62 | 1022.9 |
| 20260906151652 | 75 | 33 | 0.0 | 0.9 | 0.00 | 0.00 | 0.00 | 62 | 1023.1 |
| 20260906151148 | 73 | 30 | 0.0 | 0.9 | 0.00 | 0.00 | 0.00 | 63 | 1023.1 |
| 20260906150643 | 72 | 46 | 0.0 | 0.9 | 0.00 | 0.00 | 0.00 | 65 | 1023.2 |
| 20260906150138 | 72 | 211 | 1.7 | 2.6 | 0.00 | 0.00 | 0.00 | 66 | 1023.3 |
| 20260906145637 | 72 | 323 | 0.9 | 2.6 | 0.00 | 0.00 | 0.00 | 66 | 1023.3 |
| 20260906145131 | 71 | 88 | 0.9 | 0.9 | 0.00 | 0.00 | 0.00 | 68 | 1023.3 |
| 20260906144626 | 70 | 184 | 0.9 | 2.6 | 0.00 | 0.00 | 0.00 | 70 | 1023.5 |
| 20260906144121 | 71 | 38 | 0.9 | 0.9 | 0.00 | 0.00 | 0.00 | 69 | 1023.5 |
| 20260906143620 | 70 | 30 | 0.0 | 1.7 | 0.00 | 0.00 | 0.00 | 68 | 1023.3 |
| 20260906143118 | 69 | 53 | 0.9 | 1.7 | 0.00 | 0.00 | 0.00 | 71 | 1023.4 |
| 20260906142617 | 70 | 69 | 0.9 | 1.7 | 0.00 | 0.00 | 0.00 | 70 | 1023.5 |
| 20260906142112 | 68 | 256 | 0.0 | 0.0 | 0.00 | 0.00 | 0.00 | 71 | 1023.2 |
| 20260906141611 | 69 | 81 | 0.9 | 1.7 | 0.00 | 0.00 | 0.00 | 72 | 1023.3 |
| 20260906141107 | 67 | 326 | 0.0 | 0.9 | 0.00 | 0.00 | 0.00 | 75 | 1023.2 |
| 20260906140605 | 67 | 266 | 0.0 | 1.7 | 0.00 | 0.00 | 0.00 | 76 | 1023.1 |
| 20260906140101 | 66 | 76 | 0.9 | 0.9 | 0.00 | 0.00 | 0.00 | 76 | 1023.4 |
| 20260906135557 | 65 | 18 | 0.0 | 0.9 | 0.00 | 0.00 | 0.00 | 79 | 1023.2 |
| 20260906135053 | 64 | 65 | 0.9 | 0.9 | 0.00 | 0.00 | 0.00 | 80 | 1023.3 |
| 20260906134549 | 64 | 92 | 0.9 | 0.9 | 0.00 | 0.00 | 0.00 | 80 | 1023.3 |
| 20260906134044 | 63 | 46 | 0.0 | 0.9 | 0.00 | 0.00 | 0.00 | 81 | 1023.4 |
| 20260906133539 | 62 | 94 | 1.7 | 1.7 | 0.00 | 0.00 | 0.00 | 82 | 1023.6 |
| 20260906133035 | 62 | 20 | 0.0 | 1.7 | 0.00 | 0.00 | 0.00 | 82 | 1023.5 |
| 20260906132535 | 62 | 43 | 0.9 | 0.9 | 0.00 | 0.00 | 0.00 | 82 | 1023.5 |
| 20260906132030 | 61 | 21 | 0.0 | 0.0 | 0.00 | 0.00 | 0.00 | 85 | 1023.5 |
| 20260906131525 | 61 | 17 | 0.0 | 0.0 | 0.00 | 0.00 | 0.00 | 85 | 1023.3 |
| 20260906131021 | 60 | 38 | 0.0 | 0.0 | 0.00 | 0.00 | 0.00 | 87 | 1023.4 |
| 20260906130520 | 60 | 18 | 0.0 | 0.9 | 0.00 | 0.00 | 0.00 | 89 | 1023.3 |
| 20260906130016 | 59 | 351 | 0.0 | 0.9 | 0.00 | 0.00 | 0.00 | 90 | 1023.4 |
| 20260906125513 | 59 | 27 | 0.0 | 0.9 | 0.00 | 0.00 | 0.00 | 91 | 1023.2 |
| 20260906125013 | 58 | 336 | 0.0 | 0.9 | 0.00 | 0.00 | 0.00 | 94 | 1023.2 |
| 20260906124508 | 58 | 65 | 0.9 | 0.9 | 0.00 | 0.00 | 0.00 | 95 | 1023.1 |
| 20260906124004 | 57 | 7 | 0.0 | 0.0 | 0.00 | 0.00 | 0.00 | 97 | 1023.0 |
| 20260906123502 | 57 | 43 | 0.0 | 0.9 | 0.00 | 0.00 | 0.00 | 98 | 1022.8 |
| 20260906122957 | 56 | 58 | 0.0 | 0.9 | 0.00 | 0.00 | 0.00 | 99 | 1022.7 |
| 20260906122452 | 56 | 20 | 0.0 | 0.0 | 0.00 | 0.00 | 0.00 | 99 | 1022.9 |
| 20260906121948 | 56 | 27 | 0.0 | 0.0 | 0.00 | 0.00 | 0.00 | 99 | 1022.9 |
| 20260906121444 | 56 | 33 | 0.0 | 0.9 | 0.00 | 0.00 | 0.00 | 99 | 1022.9 |
| 20260906120941 | 55 | 354 | 0.0 | 0.0 | 0.00 | 0.00 | 0.00 | 99 | 1022.9 |
| 20260906120441 | 55 | 354 | 0.0 | 0.0 | 0.00 | 0.00 | 0.00 | 99 | 1023.0 |
| 20260906115937 | 55 | 354 | 0.0 | 0.0 | 0.00 | 0.00 | 0.00 | 99 | 1022.9 |
| 20260906115432 | 55 | 354 | 0.0 | 0.0 | 0.00 | 0.00 | 0.00 | 99 | 1023.1 |
| 20260906114933 | 55 | 354 | 0.0 | 0.0 | 0.00 | 0.00 | 0.00 | 99 | 1023.0 |
| 20260906114432 | 55 | 354 | 0.0 | 0.0 | 0.00 | 0.00 | 0.00 | 99 | 1022.8 |
| 20260906113928 | 55 | 352 | 0.0 | 0.0 | 0.00 | 0.00 | 0.00 | 99 | 1022.7 |
| 20260906113426 | 55 | 352 | 0.0 | 0.0 | 0.00 | 0.00 | 0.00 | 99 | 1022.8 |
| 20260906112923 | 55 | 352 | 0.0 | 0.0 | 0.00 | 0.00 | 0.00 | 99 | 1022.9 |
| 20260906112418 | 55 | 352 | 0.0 | 0.0 | 0.00 | 0.00 | 0.00 | 99 | 1022.7 |
| 20260906111913 | 55 | 352 | 0.0 | 0.0 | 0.00 | 0.00 | 0.00 | 99 | 1022.7 |
| 20260906111413 | 55 | 351 | 0.0 | 0.0 | 0.00 | 0.00 | 0.00 | 99 | 1022.6 |
| 20260906110908 | 55 | 356 | 0.0 | 0.0 | 0.00 | 0.00 | 0.00 | 99 | 1022.6 |
| 20260906110403 | 55 | 357 | 0.0 | 0.0 | 0.00 | 0.00 | 0.00 | 99 | 1022.5 |
| 20260906105902 | 55 | 356 | 0.0 | 0.0 | 0.00 | 0.00 | 0.00 | 99 | 1022.5 |
| 20260906105358 | 55 | 355 | 0.0 | 0.0 | 0.00 | 0.00 | 0.00 | 99 | 1022.6 |
| 20260906104854 | 55 | 357 | 0.0 | 0.0 | 0.00 | 0.00 | 0.00 | 99 | 1022.4 |
| 20260906104352 | 55 | 357 | 0.0 | 0.0 | 0.00 | 0.00 | 0.00 | 99 | 1022.3 |
| 20260906103851 | 55 | 357 | 0.0 | 0.0 | 0.00 | 0.00 | 0.00 | 99 | 1022.3 |
| 20260906103350 | 55 | 357 | 0.0 | 0.0 | 0.00 | 0.00 | 0.00 | 98 | 1022.3 |
| 20260906102846 | 55 | 357 | 0.0 | 0.0 | 0.00 | 0.00 | 0.00 | 98 | 1022.4 |
| 20260906102344 | 55 | 356 | 0.0 | 0.0 | 0.00 | 0.00 | 0.00 | 98 | 1022.2 |
| 20260906101839 | 55 | 356 | 0.0 | 0.0 | 0.00 | 0.00 | 0.00 | 98 | 1022.2 |
| 20260906101334 | 55 | 356 | 0.0 | 0.0 | 0.00 | 0.00 | 0.00 | 98 | 1022.5 |
| 20260906100831 | 56 | 356 | 0.0 | 0.0 | 0.00 | 0.00 | 0.00 | 98 | 1022.3 |
| 20260906100329 | 56 | 354 | 0.0 | 0.9 | 0.00 | 0.00 | 0.00 | 98 | 1022.2 |
| 20260906095825 | 55 | 356 | 0.0 | 0.0 | 0.00 | 0.00 | 0.00 | 98 | 1021.9 |
| 20260906095320 | 56 | 356 | 0.0 | 0.0 | 0.00 | 0.00 | 0.00 | 98 | 1022.2 |
| 20260906094819 | 56 | 356 | 0.0 | 0.0 | 0.00 | 0.00 | 0.00 | 98 | 1021.9 |
| 20260906094315 | 56 | 356 | 0.0 | 0.0 | 0.00 | 0.00 | 0.00 | 98 | 1022.2 |
| 20260906093811 | 56 | 356 | 0.0 | 0.0 | 0.00 | 0.00 | 0.00 | 98 | 1022.3 |
| 20260906093307 | 56 | 352 | 0.0 | 0.0 | 0.00 | 0.00 | 0.00 | 98 | 1022.2 |
| 20260906092801 | 57 | 344 | 0.0 | 0.0 | 0.00 | 0.00 | 0.00 | 98 | 1022.2 |
| 20260906092255 | 57 | 351 | 0.0 | 0.0 | 0.00 | 0.00 | 0.00 | 97 | 1022.2 |
| 20260906091751 | 57 | 352 | 0.0 | 0.9 | 0.00 | 0.00 | 0.00 | 97 | 1022.2 |
| 20260906091247 | 57 | 4 | 0.0 | 0.0 | 0.00 | 0.00 | 0.00 | 97 | 1022.2 |
| 20260906090744 | 57 | 13 | 0.0 | 0.0 | 0.00 | 0.00 | 0.00 | 97 | 1022.0 |
| 20260906090242 | 57 | 23 | 0.0 | 0.0 | 0.00 | 0.00 | 0.00 | 97 | 1022.0 |
| 20260906085742 | 57 | 23 | 0.0 | 0.0 | 0.00 | 0.00 | 0.00 | 97 | 1022.2 |
| 20260906085241 | 57 | 33 | 0.0 | 0.0 | 0.00 | 0.00 | 0.00 | 97 | 1022.3 |
| 20260906084736 | 57 | 8 | 0.0 | 0.0 | 0.00 | 0.00 | 0.00 | 97 | 1022.4 |
| 20260906084236 | 57 | 7 | 0.0 | 0.0 | 0.00 | 0.00 | 0.00 | 96 | 1022.5 |
| 20260906083732 | 57 | 11 | 0.0 | 0.0 | 0.00 | 0.00 | 0.00 | 96 | 1022.4 |
| 20260906083227 | 57 | 13 | 0.0 | 0.0 | 0.00 | 0.00 | 0.00 | 96 | 1022.3 |
| 20260906082722 | 57 | 8 | 0.0 | 0.0 | 0.00 | 0.00 | 0.00 | 96 | 1022.0 |
| 20260906082217 | 57 | 7 | 0.0 | 0.0 | 0.00 | 0.00 | 0.00 | 96 | 1022.0 |
| 20260906081713 | 57 | 6 | 0.0 | 0.0 | 0.00 | 0.00 | 0.00 | 96 | 1022.2 |
| 20260906081207 | 57 | 354 | 0.0 | 0.0 | 0.00 | 0.00 | 0.00 | 96 | 1022.0 |
| 20260906080704 | 58 | 3 | 0.0 | 0.0 | 0.00 | 0.00 | 0.00 | 96 | 1022.0 |
| 20260906080200 | 58 | 8 | 0.0 | 0.0 | 0.00 | 0.00 | 0.00 | 96 | 1021.9 |
| 20260906075659 | 58 | 8 | 0.0 | 0.0 | 0.00 | 0.00 | 0.00 | 96 | 1021.8 |
| 20260906075154 | 58 | 9 | 0.0 | 0.0 | 0.00 | 0.00 | 0.00 | 96 | 1021.8 |
| 20260906074649 | 58 | 9 | 0.0 | 0.0 | 0.00 | 0.00 | 0.00 | 96 | 1021.9 |
| 20260906074148 | 58 | 7 | 0.0 | 0.0 | 0.00 | 0.00 | 0.00 | 96 | 1021.8 |
| 20260906073643 | 58 | 7 | 0.0 | 0.0 | 0.00 | 0.00 | 0.00 | 96 | 1021.7 |
| 20260906073139 | 58 | 3 | 0.0 | 0.0 | 0.00 | 0.00 | 0.00 | 95 | 1021.8 |
| 20260906072634 | 58 | 3 | 0.0 | 0.0 | 0.00 | 0.00 | 0.00 | 95 | 1021.8 |
| 20260906072130 | 58 | 5 | 0.0 | 0.0 | 0.00 | 0.00 | 0.00 | 95 | 1021.7 |
| 20260906071627 | 58 | 16 | 0.0 | 0.0 | 0.00 | 0.00 | 0.00 | 95 | 1021.7 |
| 20260906071126 | 59 | 18 | 0.0 | 0.0 | 0.00 | 0.00 | 0.00 | 94 | 1021.9 |
| 20260906070623 | 59 | 18 | 0.0 | 0.0 | 0.00 | 0.00 | 0.00 | 95 | 1021.6 |
| 20260906070118 | 59 | 21 | 0.0 | 0.0 | 0.00 | 0.00 | 0.00 | 94 | 1021.8 |
| 20260906065618 | 59 | 8 | 0.0 | 0.0 | 0.00 | 0.00 | 0.00 | 93 | 1021.8 |
| 20260906065113 | 59 | 8 | 0.0 | 0.0 | 0.00 | 0.00 | 0.00 | 93 | 1021.7 |
| 20260906064609 | 59 | 8 | 0.0 | 0.0 | 0.00 | 0.00 | 0.00 | 92 | 1022.0 |
| 20260906064104 | 59 | 8 | 0.0 | 0.0 | 0.00 | 0.00 | 0.00 | 92 | 1021.7 |
| 20260906063559 | 59 | 9 | 0.0 | 0.0 | 0.00 | 0.00 | 0.00 | 92 | 1021.8 |
| 20260906063055 | 59 | 9 | 0.0 | 0.0 | 0.00 | 0.00 | 0.00 | 91 | 1021.8 |
| 20260906062550 | 59 | 2 | 0.0 | 0.0 | 0.00 | 0.00 | 0.00 | 91 | 1021.7 |
| 20260906062044 | 59 | 6 | 0.0 | 0.0 | 0.00 | 0.00 | 0.00 | 91 | 1021.8 |
| 20260906061541 | 59 | 7 | 0.0 | 0.0 | 0.00 | 0.00 | 0.00 | 91 | 1021.6 |
| 20260906061040 | 59 | 6 | 0.0 | 0.0 | 0.00 | 0.00 | 0.00 | 91 | 1021.6 |
| 20260906060537 | 60 | 3 | 0.0 | 0.0 | 0.00 | 0.00 | 0.00 | 90 | 1021.6 |
| 20260906060034 | 60 | 8 | 0.0 | 0.0 | 0.00 | 0.00 | 0.00 | 90 | 1021.5 |
| 20260906055529 | 60 | 7 | 0.0 | 0.0 | 0.00 | 0.00 | 0.00 | 88 | 1021.6 |
| 20260906055025 | 60 | 9 | 0.0 | 0.0 | 0.00 | 0.00 | 0.00 | 87 | 1021.5 |
| 20260906054524 | 61 | 6 | 0.0 | 0.0 | 0.00 | 0.00 | 0.00 | 87 | 1021.5 |
| 20260906054020 | 61 | 4 | 0.0 | 0.0 | 0.00 | 0.00 | 0.00 | 85 | 1021.3 |
| 20260906053516 | 61 | 14 | 0.0 | 0.0 | 0.00 | 0.00 | 0.00 | 84 | 1021.3 |
| 20260906053012 | 61 | 13 | 0.0 | 0.0 | 0.00 | 0.00 | 0.00 | 84 | 1021.3 |
| 20260906052507 | 60 | 13 | 0.0 | 0.0 | 0.00 | 0.00 | 0.00 | 86 | 1021.2 |
| 20260906052004 | 60 | 9 | 0.0 | 0.0 | 0.00 | 0.00 | 0.00 | 86 | 1021.1 |
| 20260906051459 | 61 | 9 | 0.0 | 0.0 | 0.00 | 0.00 | 0.00 | 87 | 1021.1 |
| 20260906050954 | 61 | 3 | 0.0 | 0.0 | 0.00 | 0.00 | 0.00 | 88 | 1021.0 |
| 20260906050453 | 61 | 3 | 0.0 | 0.0 | 0.00 | 0.00 | 0.00 | 88 | 1021.0 |
| 20260906045948 | 61 | 2 | 0.0 | 0.0 | 0.00 | 0.00 | 0.00 | 87 | 1021.1 |
| 20260906045447 | 61 | 2 | 0.0 | 0.0 | 0.00 | 0.00 | 0.00 | 87 | 1020.9 |
| 20260906044943 | 62 | 0 | 0.0 | 0.0 | 0.00 | 0.00 | 0.00 | 88 | 1020.8 |
| 20260906044438 | 62 | 0 | 0.0 | 0.0 | 0.00 | 0.00 | 0.00 | 87 | 1021.0 |
| 20260906043934 | 62 | 357 | 0.0 | 0.0 | 0.00 | 0.00 | 0.00 | 86 | 1020.9 |
| 20260906043429 | 63 | 19 | 0.0 | 0.0 | 0.00 | 0.00 | 0.00 | 84 | 1020.7 |
| 20260906042925 | 63 | 20 | 0.0 | 0.0 | 0.00 | 0.00 | 0.00 | 84 | 1020.9 |
| 20260906042423 | 63 | 20 | 0.0 | 0.0 | 0.00 | 0.00 | 0.00 | 84 | 1021.0 |
| 20260906041918 | 63 | 14 | 0.0 | 0.0 | 0.00 | 0.00 | 0.00 | 84 | 1021.2 |
| 20260906041414 | 63 | 11 | 0.0 | 0.0 | 0.00 | 0.00 | 0.00 | 84 | 1021.1 |
| 20260906040914 | 64 | 3 | 0.0 | 0.0 | 0.00 | 0.00 | 0.00 | 83 | 1020.9 |
| 20260906040409 | 64 | 15 | 0.0 | 0.0 | 0.00 | 0.00 | 0.00 | 82 | 1021.1 |
| 20260906035905 | 64 | 26 | 0.0 | 1.7 | 0.00 | 0.00 | 0.00 | 83 | 1021.0 |
| 20260906035400 | 64 | 9 | 0.0 | 0.0 | 0.00 | 0.00 | 0.00 | 83 | 1020.9 |
| 20260906034855 | 64 | 1 | 0.0 | 0.9 | 0.00 | 0.00 | 0.00 | 83 | 1020.8 |
| 20260906034349 | 64 | 1 | 0.0 | 0.0 | 0.00 | 0.00 | 0.00 | 83 | 1020.7 |
| 20260906033846 | 64 | 25 | 0.0 | 0.0 | 0.00 | 0.00 | 0.00 | 82 | 1020.6 |
| 20260906033344 | 64 | 2 | 0.0 | 0.0 | 0.00 | 0.00 | 0.00 | 82 | 1020.9 |
| 20260906032841 | 65 | 25 | 0.0 | 0.0 | 0.00 | 0.00 | 0.00 | 82 | 1020.7 |
| 20260906032337 | 64 | 0 | 0.0 | 0.0 | 0.00 | 0.00 | 0.00 | 83 | 1020.6 |
| 20260906031833 | 65 | 20 | 0.0 | 0.0 | 0.00 | 0.00 | 0.00 | 82 | 1020.8 |
| 20260906031328 | 65 | 25 | 0.0 | 0.0 | 0.00 | 0.00 | 0.00 | 81 | 1020.8 |
| 20260906030827 | 66 | 21 | 0.0 | 0.0 | 0.00 | 0.00 | 0.00 | 82 | 1020.7 |
| 20260906030323 | 66 | 28 | 0.0 | 0.0 | 0.00 | 0.00 | 0.00 | 81 | 1020.9 |
| 20260906025822 | 66 | 16 | 0.0 | 0.0 | 0.00 | 0.00 | 0.00 | 81 | 1020.8 |
| 20260906025316 | 66 | 28 | 0.0 | 0.0 | 0.00 | 0.00 | 0.00 | 80 | 1020.6 |
| 20260906024816 | 67 | 17 | 0.0 | 0.0 | 0.00 | 0.00 | 0.00 | 80 | 1020.9 |
| 20260906024315 | 67 | 30 | 0.9 | 0.9 | 0.00 | 0.00 | 0.00 | 79 | 1020.7 |
| 20260906023810 | 67 | 78 | 0.9 | 3.5 | 0.00 | 0.00 | 0.00 | 78 | 1020.7 |
| 20260906023306 | 68 | 36 | 0.0 | 1.7 | 0.00 | 0.00 | 0.00 | 78 | 1020.6 |
| 20260906022801 | 68 | 63 | 0.0 | 0.9 | 0.00 | 0.00 | 0.00 | 79 | 1020.5 |
| 20260906022256 | 68 | 46 | 0.0 | 0.9 | 0.00 | 0.00 | 0.00 | 78 | 1020.4 |
| 20260906021752 | 68 | 37 | 0.0 | 1.7 | 0.00 | 0.00 | 0.00 | 78 | 1020.4 |
| 20260906021251 | 68 | 86 | 0.9 | 1.7 | 0.00 | 0.00 | 0.00 | 78 | 1020.4 |
| 20260906020746 | 68 | 86 | 0.9 | 1.7 | 0.00 | 0.00 | 0.00 | 77 | 1020.3 |
| 20260906020240 | 69 | 90 | 0.9 | 1.7 | 0.00 | 0.00 | 0.00 | 77 | 1020.3 |
| 20260906015735 | 69 | 80 | 0.9 | 2.6 | 0.00 | 0.00 | 0.00 | 77 | 1020.4 |
| 20260906015233 | 69 | 78 | 1.7 | 1.7 | 0.00 | 0.00 | 0.00 | 76 | 1020.4 |
| 20260906014728 | 69 | 31 | 0.9 | 1.7 | 0.00 | 0.00 | 0.00 | 77 | 1020.2 |
| 20260906014224 | 69 | 38 | 1.7 | 2.6 | 0.00 | 0.00 | 0.00 | 76 | 1020.2 |
| 20260906013715 | 70 | 56 | 0.9 | 0.9 | 0.00 | 0.00 | 0.00 | 76 | 1020.1 |
| 20260906013215 | 70 | 52 | 1.7 | 1.7 | 0.00 | 0.00 | 0.00 | 76 | 1020.0 |
| 20260906012710 | 70 | 62 | 0.9 | 1.7 | 0.00 | 0.00 | 0.00 | 76 | 1020.0 |
| 20260906012209 | 70 | 32 | 0.0 | 0.9 | 0.00 | 0.00 | 0.00 | 77 | 1020.0 |
| 20260906011705 | 70 | 45 | 0.9 | 0.9 | 0.00 | 0.00 | 0.00 | 77 | 1019.9 |
| 20260906011200 | 71 | 53 | 0.9 | 1.7 | 0.00 | 0.00 | 0.00 | 75 | 1019.9 |
| 20260906010655 | 71 | 22 | 0.0 | 0.0 | 0.00 | 0.00 | 0.00 | 75 | 1020.0 |
| 20260906010151 | 71 | 116 | 0.0 | 1.7 | 0.00 | 0.00 | 0.00 | 74 | 1020.0 |
| 20260906005651 | 72 | 53 | 1.7 | 2.6 | 0.00 | 0.00 | 0.00 | 73 | 1019.8 |
| 20260906005150 | 72 | 33 | 1.7 | 2.6 | 0.00 | 0.00 | 0.00 | 73 | 1019.6 |
| 20260906004649 | 72 | 48 | 1.7 | 3.5 | 0.00 | 0.00 | 0.00 | 71 | 1019.6 |
| 20260906004144 | 73 | 48 | 2.6 | 5.2 | 0.00 | 0.00 | 0.00 | 69 | 1019.7 |
| 20260906003639 | 73 | 74 | 0.9 | 0.9 | 0.00 | 0.00 | 0.00 | 68 | 1019.7 |
| 20260906003135 | 73 | 3 | 0.0 | 0.0 | 0.00 | 0.00 | 0.00 | 65 | 1019.5 |
| 20260906002630 | 73 | 15 | 0.0 | 0.0 | 0.00 | 0.00 | 0.00 | 65 | 1019.7 |
| 20260906002125 | 74 | 14 | 0.0 | 0.0 | 0.00 | 0.00 | 0.00 | 63 | 1019.6 |
| 20260906001620 | 74 | 16 | 0.0 | 0.0 | 0.00 | 0.00 | 0.00 | 63 | 1019.3 |
| 20260906001120 | 74 | 18 | 0.0 | 0.0 | 0.00 | 0.00 | 0.00 | 64 | 1019.4 |
| 20260906000616 | 75 | 20 | 0.0 | 0.0 | 0.00 | 0.00 | 0.00 | 62 | 1019.5 |
| 20260906000111 | 75 | 24 | 0.0 | 0.9 | 0.00 | 0.00 | 0.00 | 61 | 1019.3 |
| 20260905235610 | 76 | 25 | 0.0 | 0.9 | 0.00 | 0.00 | 0.00 | 59 | 1019.5 |
| 20260905235105 | 77 | 21 | 0.0 | 0.0 | 0.00 | 0.00 | 0.00 | 58 | 1019.3 |
| 20260905234601 | 78 | 25 | 0.0 | 0.0 | 0.00 | 0.00 | 0.00 | 57 | 1019.5 |
| 20260905234055 | 78 | 35 | 0.0 | 0.9 | 0.00 | 0.00 | 0.00 | 54 | 1019.5 |
| 20260905233555 | 78 | 10 | 0.0 | 0.0 | 0.00 | 0.00 | 0.00 | 55 | 1019.2 |
| 20260905233050 | 78 | 17 | 0.0 | 0.9 | 0.00 | 0.00 | 0.00 | 56 | 1019.3 |
| 20260905232545 | 79 | 40 | 0.9 | 1.7 | 0.00 | 0.00 | 0.00 | 55 | 1019.4 |
| 20260905232041 | 78 | 15 | 0.9 | 0.9 | 0.00 | 0.00 | 0.00 | 54 | 1019.3 |
| 20260905231536 | 78 | 29 | 0.0 | 0.9 | 0.00 | 0.00 | 0.00 | 55 | 1019.2 |
| 20260905231032 | 79 | 55 | 1.7 | 1.7 | 0.00 | 0.00 | 0.00 | 55 | 1019.5 |
| 20260905230531 | 81 | 23 | 0.9 | 1.7 | 0.00 | 0.00 | 0.00 | 53 | 1019.5 |
| 20260905230030 | 80 | 1 | 0.9 | 1.7 | 0.00 | 0.00 | 0.00 | 53 | 1019.4 |
| 20260905225525 | 80 | 0 | 0.0 | 1.7 | 0.00 | 0.00 | 0.00 | 54 | 1019.3 |
| 20260905225020 | 80 | 60 | 0.0 | 0.9 | 0.00 | 0.00 | 0.00 | 53 | 1019.4 |
| 20260905224515 | 81 | 19 | 0.0 | 0.0 | 0.00 | 0.00 | 0.00 | 50 | 1019.3 |
| 20260905224014 | 81 | 347 | 0.0 | 0.9 | 0.00 | 0.00 | 0.00 | 49 | 1019.2 |
| 20260905223512 | 79 | 22 | 0.0 | 1.7 | 0.00 | 0.00 | 0.00 | 52 | 1019.3 |
| 20260905223008 | 79 | 30 | 0.0 | 0.9 | 0.00 | 0.00 | 0.00 | 54 | 1019.5 |
| 20260905222507 | 77 | 26 | 0.9 | 0.9 | 0.00 | 0.00 | 0.00 | 57 | 1019.4 |
| 20260905222003 | 78 | 35 | 0.9 | 1.7 | 0.00 | 0.00 | 0.00 | 58 | 1019.6 |
| 20260905221459 | 78 | 43 | 1.7 | 1.7 | 0.00 | 0.00 | 0.00 | 55 | 1019.6 |
| 20260905220955 | 77 | 11 | 0.0 | 0.9 | 0.00 | 0.00 | 0.00 | 56 | 1019.3 |
| 20260905220451 | 78 | 44 | 0.9 | 1.7 | 0.00 | 0.00 | 0.00 | 57 | 1019.5 |
| 20260905215950 | 79 | 29 | 0.9 | 1.7 | 0.00 | 0.00 | 0.00 | 55 | 1019.5 |
| 20260905215445 | 80 | 356 | 1.7 | 1.7 | 0.00 | 0.00 | 0.00 | 53 | 1019.5 |
| 20260905214942 | 81 | 312 | 0.9 | 1.7 | 0.00 | 0.00 | 0.00 | 51 | 1019.5 |
| 20260905214432 | 80 | 15 | 1.7 | 2.6 | 0.00 | 0.00 | 0.00 | 51 | 1019.7 |
| 20260905213931 | 81 | 22 | 1.7 | 2.6 | 0.00 | 0.00 | 0.00 | 54 | 1019.5 |
| 20260905213427 | 81 | 336 | 0.0 | 2.6 | 0.00 | 0.00 | 0.00 | 52 | 1019.5 |
| 20260905212922 | 82 | 359 | 0.0 | 2.6 | 0.00 | 0.00 | 0.00 | 51 | 1019.4 |
| 20260905212418 | 82 | 330 | 0.0 | 0.9 | 0.00 | 0.00 | 0.00 | 52 | 1019.4 |
| 20260905211917 | 79 | 79 | 1.7 | 3.5 | 0.00 | 0.00 | 0.00 | 52 | 1019.3 |
| 20260905211413 | 79 | 102 | 1.7 | 3.5 | 0.00 | 0.00 | 0.00 | 53 | 1019.4 |
| 20260905210908 | 80 | 267 | 1.7 | 2.6 | 0.00 | 0.00 | 0.00 | 52 | 1019.4 |
| 20260905210403 | 80 | 165 | 3.5 | 5.2 | 0.00 | 0.00 | 0.00 | 52 | 1019.2 |
| 20260905205902 | 80 | 213 | 0.9 | 2.6 | 0.00 | 0.00 | 0.00 | 51 | 1019.3 |
| 20260905205356 | 79 | 330 | 1.7 | 5.2 | 0.00 | 0.00 | 0.00 | 52 | 1018.9 |
| 20260905204855 | 78 | 86 | 1.7 | 2.6 | 0.00 | 0.00 | 0.00 | 55 | 1018.9 |
| 20260905204352 | 80 | 125 | 2.6 | 6.1 | 0.00 | 0.00 | 0.00 | 52 | 1018.9 |
| 20260905203850 | 80 | 37 | 2.6 | 3.5 | 0.00 | 0.00 | 0.00 | 56 | 1018.9 |
| 20260905203346 | 79 | 340 | 4.3 | 5.2 | 0.00 | 0.00 | 0.00 | 55 | 1019.3 |
| 20260905202842 | 80 | 343 | 0.0 | 0.9 | 0.00 | 0.00 | 0.00 | 55 | 1019.4 |
| 20260905202336 | 80 | 329 | 0.0 | 2.6 | 0.00 | 0.00 | 0.00 | 52 | 1019.3 |
| 20260905201833 | 78 | 93 | 1.7 | 1.7 | 0.00 | 0.00 | 0.00 | 55 | 1019.3 |
| 20260905201328 | 78 | 19 | 0.0 | 0.9 | 0.00 | 0.00 | 0.00 | 55 | 1019.4 |
| 20260905200828 | 77 | 357 | 0.0 | 1.7 | 0.00 | 0.00 | 0.00 | 58 | 1019.3 |
| 20260905200325 | 78 | 39 | 1.7 | 2.6 | 0.00 | 0.00 | 0.00 | 57 | 1019.5 |
| 20260905195821 | 81 | 321 | 3.5 | 5.2 | 0.00 | 0.00 | 0.00 | 54 | 1019.4 |
| 20260905195317 | 81 | 319 | 1.7 | 1.7 | 0.00 | 0.00 | 0.00 | 52 | 1019.4 |
| 20260905194813 | 80 | 270 | 0.9 | 1.7 | 0.00 | 0.00 | 0.00 | 52 | 1019.3 |
| 20260905194312 | 80 | 21 | 0.9 | 2.6 | 0.00 | 0.00 | 0.00 | 52 | 1019.7 |
| 20260905193812 | 80 | 11 | 1.7 | 7.0 | 0.00 | 0.00 | 0.00 | 57 | 1019.4 |
| 20260905193307 | 79 | 70 | 2.6 | 5.2 | 0.00 | 0.00 | 0.00 | 55 | 1019.6 |
| 20260905192802 | 79 | 5 | 0.9 | 2.6 | 0.00 | 0.00 | 0.00 | 54 | 1019.5 |
| 20260905192258 | 79 | 57 | 1.7 | 3.5 | 0.00 | 0.00 | 0.00 | 57 | 1019.4 |
| 20260905191757 | 81 | 119 | 0.9 | 1.7 | 0.00 | 0.00 | 0.00 | 52 | 1019.7 |
| 20260905191256 | 78 | 61 | 1.7 | 3.5 | 0.00 | 0.00 | 0.00 | 55 | 1019.6 |
| 20260905190755 | 78 | 59 | 0.9 | 2.6 | 0.00 | 0.00 | 0.00 | 57 | 1019.5 |
| 20260905190254 | 77 | 57 | 3.5 | 3.5 | 0.00 | 0.00 | 0.00 | 57 | 1019.5 |
| 20260905185753 | 77 | 40 | 0.9 | 3.5 | 0.00 | 0.00 | 0.00 | 61 | 1019.5 |
| 20260905185248 | 78 | 40 | 1.7 | 3.5 | 0.00 | 0.00 | 0.00 | 60 | 1019.8 |
| 20260905184742 | 79 | 6 | 0.9 | 5.2 | 0.00 | 0.00 | 0.00 | 57 | 1019.5 |
| 20260905184242 | 80 | 166 | 0.9 | 1.7 | 0.00 | 0.00 | 0.00 | 55 | 1019.6 |
| 20260905183740 | 80 | 23 | 0.0 | 2.6 | 0.00 | 0.00 | 0.00 | 54 | 1019.7 |
| 20260905183236 | 80 | 17 | 0.9 | 1.7 | 0.00 | 0.00 | 0.00 | 55 | 1019.7 |
| 20260905182731 | 78 | 103 | 0.9 | 1.7 | 0.00 | 0.00 | 0.00 | 57 | 1019.8 |
| 20260905182230 | 77 | 331 | 0.9 | 1.7 | 0.00 | 0.00 | 0.00 | 59 | 1020.1 |
| 20260905181725 | 78 | 34 | 0.9 | 2.6 | 0.00 | 0.00 | 0.00 | 59 | 1020.0 |
| 20260905181224 | 77 | 113 | 3.5 | 5.2 | 0.00 | 0.00 | 0.00 | 58 | 1020.2 |
| 20260905180720 | 76 | 180 | 0.9 | 1.7 | 0.00 | 0.00 | 0.00 | 60 | 1020.1 |
| 20260905180215 | 76 | 273 | 1.7 | 2.6 | 0.00 | 0.00 | 0.00 | 61 | 1020.2 |
| 20260905175714 | 75 | 36 | 1.7 | 3.5 | 0.00 | 0.00 | 0.00 | 62 | 1020.1 |
| 20260905175209 | 74 | 21 | 0.9 | 3.5 | 0.00 | 0.00 | 0.00 | 67 | 1020.1 |
| 20260905174704 | 75 | 41 | 0.9 | 1.7 | 0.00 | 0.00 | 0.00 | 66 | 1020.0 |
| 20260905174200 | 75 | 79 | 0.0 | 1.7 | 0.00 | 0.00 | 0.00 | 63 | 1020.0 |